Time;durP1;ratioP1;P1;durP2;ratioP2;P2;SDS_P1;SDS_P2;PMS_P1;PMS_P2;Temp;Humidity;BMP_temperature;BMP_pressure;BME280_temperature;BME280_humidity;BME280_pressure;Samples;Min_cycle;Max_cycle;Signal;HPM_P1;HPM_P2
2021/12/26 00:01:32;;;;;;;4.53;3.23;;;;;;;3.40;100.00;95172.06;4945790;28;20338;-90
2021/12/26 00:04:00;;;;;;;5.20;3.50;;;;;;;3.34;100.00;95174.78;4934123;29;20217;-91
2021/12/26 00:06:29;;;;;;;5.03;3.77;;;;;;;3.31;100.00;95178.72;4927976;29;20209;-91
2021/12/26 00:08:58;;;;;;;6.57;3.40;;;;;;;3.28;100.00;95172.97;4928427;29;20198;-91
2021/12/26 00:11:26;;;;;;;4.60;2.80;;;;;;;3.27;100.00;95177.50;4923841;29;20216;-90
2021/12/26 00:13:55;;;;;;;6.73;3.00;;;;;;;3.31;100.00;95175.22;4930605;29;20202;-90
2021/12/26 00:16:22;;;;;;;4.63;3.03;;;;;;;3.29;100.00;95187.94;4931064;29;20221;-91
2021/12/26 00:18:49;;;;;;;4.47;3.20;;;;;;;3.30;100.00;95184.25;4932019;28;20213;-91
2021/12/26 00:21:20;;;;;;;3.67;2.83;;;;;;;3.35;100.00;95192.41;4933363;29;20244;-89
2021/12/26 00:23:49;;;;;;;5.17;2.87;;;;;;;3.35;100.00;95203.09;4925437;29;20275;-89
2021/12/26 00:26:16;;;;;;;4.67;2.80;;;;;;;3.33;100.00;95189.16;4935660;29;20221;-91
2021/12/26 00:28:44;;;;;;;5.73;3.30;;;;;;;3.36;100.00;95194.06;4934973;29;20242;-91
2021/12/26 00:31:11;;;;;;;5.33;3.10;;;;;;;3.36;100.00;95188.72;4939353;29;20232;-90
2021/12/26 00:33:41;;;;;;;5.43;3.10;;;;;;;3.38;100.00;95197.34;4942101;29;20202;-93
2021/12/26 00:36:08;;;;;;;6.17;3.10;;;;;;;3.32;100.00;95192.84;4942462;29;20244;-90
2021/12/26 00:38:37;;;;;;;4.70;2.70;;;;;;;3.39;100.00;95207.00;4941367;28;20305;-90
2021/12/26 00:41:06;;;;;;;5.00;2.90;;;;;;;3.40;100.00;95195.28;4930221;29;20214;-92
2021/12/26 00:43:33;;;;;;;7.90;4.50;;;;;;;3.36;100.00;95194.06;4927638;28;20235;-90
2021/12/26 00:46:00;;;;;;;5.30;3.23;;;;;;;3.37;100.00;95198.38;4942620;29;20268;-92
2021/12/26 00:48:28;;;;;;;4.73;3.10;;;;;;;3.38;100.00;95197.34;4933629;29;20217;-91
2021/12/26 00:50:55;;;;;;;10.30;4.07;;;;;;;3.37;100.00;95196.53;4926615;29;20202;-90
2021/12/26 00:53:22;;;;;;;8.30;4.83;;;;;;;3.37;100.00;95196.53;4930903;29;20283;-90
2021/12/26 00:55:50;;;;;;;7.33;3.60;;;;;;;3.35;100.00;95195.91;4930814;29;20221;-92
2021/12/26 00:58:19;;;;;;;6.10;3.30;;;;;;;3.30;100.00;95193.06;4920675;29;20379;-90
2021/12/26 01:00:48;;;;;;;3.67;3.00;;;;;;;3.23;100.00;95180.81;4924200;29;20213;-92
2021/12/26 01:03:17;;;;;;;5.87;4.27;;;;;;;3.23;100.00;95192.25;4932113;29;20213;-91
2021/12/26 01:05:47;;;;;;;7.33;4.20;;;;;;;3.17;100.00;95182.47;4927099;29;20260;-91
2021/12/26 01:08:16;;;;;;;6.63;3.83;;;;;;;3.20;100.00;95186.56;4926997;29;20210;-90
2021/12/26 01:10:53;;;;;;;5.13;3.70;;;;;;;3.20;100.00;95184.72;4935694;29;20225;-90
2021/12/26 01:13:30;;;;;;;4.93;3.47;;;;;;;3.28;100.00;95186.31;4922950;29;20232;-90
2021/12/26 01:16:11;;;;;;;5.53;2.93;;;;;;;3.32;100.00;95177.66;4935788;28;20229;-89
2021/12/26 01:18:42;;;;;;;2.30;1.90;;;;;;;3.32;100.00;95177.66;4927715;29;20225;-91
2021/12/26 01:21:18;;;;;;;3.30;1.90;;;;;;;3.32;100.00;95184.84;4942798;29;20210;-90
2021/12/26 01:23:49;;;;;;;2.63;1.90;;;;;;;3.41;100.00;95179.03;4927616;29;20324;-91
2021/12/26 01:26:17;;;;;;;3.17;1.80;;;;;;;3.53;100.00;95179.19;4921509;29;20401;-89
2021/12/26 01:28:46;;;;;;;2.00;1.80;;;;;;;3.48;100.00;95173.69;4923712;29;20280;-90
2021/12/26 01:31:18;;;;;;;3.07;2.00;;;;;;;3.60;100.00;95182.63;4922002;29;20274;-93
2021/12/26 01:33:47;;;;;;;3.30;1.77;;;;;;;3.63;100.00;95171.53;4924622;29;20207;-90
2021/12/26 01:36:37;;;;;;;3.60;2.10;;;;;;;3.69;100.00;95178.66;4932834;29;20224;-91
2021/12/26 01:39:22;;;;;;;2.83;2.00;;;;;;;3.73;100.00;95182.56;4933702;29;20353;-85
2021/12/26 01:42:13;;;;;;;2.70;1.53;;;;;;;3.76;100.00;95195.44;4940228;29;20225;-86
2021/12/26 01:45:06;;;;;;;1.57;1.30;;;;;;;3.82;100.00;95187.63;4939389;29;20233;-85
2021/12/26 01:47:42;;;;;;;1.97;1.50;;;;;;;3.87;100.00;95182.44;4932115;29;20214;-86
2021/12/26 01:50:10;;;;;;;1.30;1.17;;;;;;;3.95;100.00;95192.84;4926265;29;20220;-85
2021/12/26 01:52:37;;;;;;;2.17;1.47;;;;;;;3.96;100.00;95202.50;4922639;29;20283;-86
2021/12/26 01:55:22;;;;;;;1.80;1.37;;;;;;;3.93;100.00;95206.41;4933360;29;20261;-85
2021/12/26 01:57:51;;;;;;;2.40;1.90;;;;;;;3.90;100.00;95206.88;4937413;29;20225;-85
2021/12/26 02:00:19;;;;;;;2.43;1.60;;;;;;;3.85;100.00;95204.00;4930410;29;20296;-86
2021/12/26 02:02:46;;;;;;;3.90;1.53;;;;;;;3.83;100.00;95202.63;4945071;29;20206;-84
2021/12/26 02:05:15;;;;;;;1.80;1.37;;;;;;;3.79;100.00;95204.88;4928706;29;20210;-86
2021/12/26 02:07:43;;;;;;;1.90;1.60;;;;;;;3.80;100.00;95207.34;4924809;29;20205;-85
2021/12/26 02:10:10;;;;;;;2.33;1.60;;;;;;;3.80;100.00;95207.34;4920960;29;20305;-85
2021/12/26 02:12:37;;;;;;;2.80;1.60;;;;;;;3.78;100.00;95217.41;4932954;29;20213;-86
2021/12/26 02:15:06;;;;;;;2.60;1.87;;;;;;;3.80;100.00;95212.69;4921874;29;20304;-85
2021/12/26 02:17:42;;;;;;;3.10;2.00;;;;;;;3.82;100.00;95215.16;4935831;29;20239;-86
2021/12/26 02:20:31;;;;;;;3.20;2.00;;;;;;;3.75;100.00;95211.69;4927763;29;20520;-85
2021/12/26 02:23:05;;;;;;;4.60;2.57;;;;;;;3.74;100.00;95208.19;4927776;29;20210;-86
2021/12/26 02:27:31;;;;;;;2.93;2.30;;;;;;;3.74;100.00;95221.53;4945543;29;20205;-86
2021/12/26 02:28:21;;;;;;;3.43;2.23;;;;;;;3.69;100.00;95223.22;4920942;29;20240;-85
2021/12/26 02:30:49;;;;;;;4.07;2.40;;;;;;;3.64;100.00;95218.53;4916031;28;20237;-86
2021/12/26 02:33:18;;;;;;;3.47;2.30;;;;;;;3.62;100.00;95203.75;4934876;29;20234;-86
2021/12/26 02:35:47;;;;;;;4.70;2.60;;;;;;;3.60;100.00;95205.81;4928218;29;20248;-85
2021/12/26 02:38:17;;;;;;;3.73;2.50;;;;;;;3.60;100.00;95200.47;4923462;29;20238;-86
2021/12/26 02:40:47;;;;;;;3.73;2.20;;;;;;;3.59;100.00;95206.84;4915933;29;20206;-86
2021/12/26 02:43:17;;;;;;;2.63;2.03;;;;;;;3.53;100.00;95200.53;4929762;29;20206;-86
2021/12/26 02:45:45;;;;;;;2.93;2.10;;;;;;;3.51;100.00;95191.91;4930504;29;20350;-85
2021/12/26 02:48:12;;;;;;;2.87;2.20;;;;;;;3.53;100.00;95200.53;4937979;28;20328;-86
2021/12/26 02:50:41;;;;;;;3.97;2.03;;;;;;;3.42;100.00;95193.19;4919976;29;20212;-86
2021/12/26 02:53:11;;;;;;;2.57;1.87;;;;;;;3.43;100.00;95202.84;4925522;29;20242;-85
2021/12/26 02:55:39;;;;;;;3.50;1.90;;;;;;;3.40;100.00;95200.63;4926823;29;20292;-85
2021/12/26 02:58:09;;;;;;;2.80;1.60;;;;;;;3.38;100.00;95194.69;4918735;29;20234;-86
2021/12/26 03:00:40;;;;;;;2.37;1.70;;;;;;;3.37;100.00;95201.03;4937470;29;20423;-86
2021/12/26 03:03:09;;;;;;;5.23;2.00;;;;;;;3.30;100.00;95186.91;4918689;29;20297;-86
2021/12/26 03:05:39;;;;;;;2.20;1.77;;;;;;;3.32;100.00;95198.16;4919587;29;20228;-87
2021/12/26 03:08:08;;;;;;;2.40;1.63;;;;;;;3.35;100.00;95200.44;4931885;29;20300;-86
2021/12/26 03:10:37;;;;;;;3.43;1.60;;;;;;;3.34;100.00;95198.78;4920333;29;20218;-85
2021/12/26 03:13:08;;;;;;;1.80;1.40;;;;;;;3.33;100.00;95197.97;4924379;29;20209;-86
2021/12/26 03:15:35;;;;;;;1.97;1.43;;;;;;;3.30;100.00;95195.75;4954482;28;20220;-86
2021/12/26 03:18:04;;;;;;;1.90;1.40;;;;;;;3.34;100.00;95206.78;4924889;29;20218;-85
2021/12/26 03:20:33;;;;;;;1.60;1.30;;;;;;;3.35;100.00;95216.44;4933293;29;20222;-86
2021/12/26 03:23:02;;;;;;;1.30;1.20;;;;;;;3.35;100.00;95213.75;4928400;29;20209;-85
2021/12/26 03:25:32;;;;;;;2.80;1.37;;;;;;;3.31;100.00;95208.06;4924671;29;20214;-86
2021/12/26 03:28:02;;;;;;;1.90;1.60;;;;;;;3.30;100.00;95210.94;4920284;29;20229;-85
2021/12/26 03:30:30;;;;;;;2.20;1.50;;;;;;;3.31;100.00;95228.56;4939116;28;20215;-85
2021/12/26 03:33:00;;;;;;;2.50;1.53;;;;;;;3.33;100.00;95237.97;4927114;29;20221;-85
2021/12/26 03:35:29;;;;;;;1.70;1.53;;;;;;;3.32;100.00;95240.84;4921255;29;20249;-87
2021/12/26 03:37:58;;;;;;;2.03;1.40;;;;;;;3.27;100.00;95236.19;4925404;29;20234;-85
2021/12/26 03:40:45;;;;;;;1.53;1.43;;;;;;;3.30;100.00;95248.28;4941287;29;20216;-86
2021/12/26 03:43:14;;;;;;;1.77;1.57;;;;;;;3.27;100.00;95246.84;4924253;29;20217;-86
2021/12/26 03:45:44;;;;;;;2.57;1.80;;;;;;;3.24;100.00;95241.09;4950963;28;20209;-86
2021/12/26 03:48:12;;;;;;;3.03;2.13;;;;;;;3.18;100.00;95237.44;4926329;29;20261;-86
2021/12/26 03:50:41;;;;;;;4.17;2.13;;;;;;;3.19;100.00;95239.09;4927374;29;20210;-85
2021/12/26 03:53:08;;;;;;;3.80;2.03;;;;;;;3.25;100.00;95248.91;4916644;29;20213;-86
2021/12/26 03:55:36;;;;;;;3.20;1.90;;;;;;;3.35;100.00;95257.28;4927520;29;20224;-87
2021/12/26 03:58:04;;;;;;;3.57;2.00;;;;;;;3.28;100.00;95242.31;4923659;29;20248;-86
2021/12/26 04:00:33;;;;;;;4.43;1.90;;;;;;;3.29;100.00;95251.97;4925127;29;20216;-87
2021/12/26 04:03:01;;;;;;;4.33;2.10;;;;;;;3.25;100.00;95250.75;4925113;29;20213;-87
2021/12/26 04:05:28;;;;;;;3.17;1.80;;;;;;;3.27;100.00;95260.19;4926480;29;20219;-86
2021/12/26 04:07:56;;;;;;;3.53;2.07;;;;;;;3.33;100.00;95266.50;4943380;28;20236;-86
2021/12/26 04:10:24;;;;;;;3.00;1.87;;;;;;;3.27;100.00;95270.03;4923833;29;20214;-86
2021/12/26 04:12:53;;;;;;;3.53;2.10;;;;;;;3.23;100.00;95258.16;4928802;29;20217;-86
2021/12/26 04:15:23;;;;;;;5.83;2.00;;;;;;;3.20;100.00;95259.41;4942703;29;20301;-86
2021/12/26 04:17:54;;;;;;;2.50;2.03;;;;;;;3.20;100.00;95263.91;4926151;29;20228;-85
2021/12/26 04:20:23;;;;;;;4.23;2.50;;;;;;;3.23;100.00;95252.84;4935867;29;20224;-86
2021/12/26 04:22:50;;;;;;;4.57;2.90;;;;;;;3.18;100.00;95244.63;4937444;29;20226;-86
2021/12/26 04:25:17;;;;;;;4.17;2.90;;;;;;;3.13;100.00;95247.13;4946904;28;20245;-86
2021/12/26 04:27:44;;;;;;;4.10;2.80;;;;;;;3.15;100.00;95245.84;4928964;29;20257;-86
2021/12/26 04:30:14;;;;;;;3.57;2.70;;;;;;;3.13;100.00;95241.78;4933844;29;20273;-86
2021/12/26 04:32:41;;;;;;;3.97;2.50;;;;;;;3.21;100.00;95254.88;4928589;29;20305;-86
2021/12/26 04:35:10;;;;;;;2.53;1.93;;;;;;;3.14;100.00;95254.09;4928716;29;20229;-86
2021/12/26 04:37:37;;;;;;;4.10;2.30;;;;;;;3.19;100.00;95246.25;4924757;29;20210;-85
2021/12/26 04:40:07;;;;;;;5.43;2.63;;;;;;;3.25;100.00;95246.22;4935221;29;20243;-86
2021/12/26 04:42:51;;;;;;;2.80;2.30;;;;;;;3.29;100.00;95242.13;4928111;29;20212;-87
2021/12/26 04:45:32;;;;;;;3.30;2.10;;;;;;;3.33;100.00;95248.66;4939257;28;20225;-86
2021/12/26 04:48:22;;;;;;;3.30;2.30;;;;;;;3.36;100.00;95255.44;4926204;29;20245;-85
2021/12/26 04:50:51;;;;;;;2.90;2.00;;;;;;;3.39;100.00;95252.34;4927099;29;20218;-85
2021/12/26 04:53:18;;;;;;;2.93;2.10;;;;;;;3.40;100.00;95251.31;4926411;29;20292;-86
2021/12/26 04:55:46;;;;;;;2.50;2.00;;;;;;;3.36;100.00;95250.09;4939998;29;20301;-86
2021/12/26 04:58:13;;;;;;;3.00;2.30;;;;;;;3.34;100.00;95244.97;4920843;28;20255;-86
2021/12/26 05:00:41;;;;;;;3.00;2.37;;;;;;;3.41;100.00;95252.94;4937272;29;20206;-86
2021/12/26 05:03:08;;;;;;;2.80;2.23;;;;;;;3.39;100.00;95252.34;4929843;29;20221;-86
2021/12/26 05:05:36;;;;;;;2.40;1.73;;;;;;;3.30;100.00;95248.28;4945424;29;20209;-86
2021/12/26 05:08:06;;;;;;;2.13;1.70;;;;;;;3.32;100.00;95255.03;4925025;29;20268;-86
2021/12/26 05:10:33;;;;;;;2.67;1.80;;;;;;;3.34;100.00;95244.97;4918927;29;20241;-86
2021/12/26 05:13:04;;;;;;;3.13;2.20;;;;;;;3.32;100.00;95256.88;4921335;29;20209;-85
2021/12/26 05:15:31;;;;;;;2.10;1.90;;;;;;;3.34;100.00;95255.63;4934708;29;20296;-85
2021/12/26 05:17:59;;;;;;;3.23;1.90;;;;;;;3.37;100.00;95257.06;4925185;29;20222;-86
2021/12/26 05:20:30;;;;;;;2.27;1.90;;;;;;;3.36;100.00;95252.75;4928585;29;20214;-86
2021/12/26 05:22:58;;;;;;;2.60;2.00;;;;;;;3.34;100.00;95249.47;4928446;29;20205;-86
2021/12/26 05:25:27;;;;;;;2.77;2.00;;;;;;;3.38;100.00;95264.88;4923000;29;20243;-85
2021/12/26 05:27:56;;;;;;;1.83;1.63;;;;;;;3.38;100.00;95256.88;4928777;29;20229;-86
2021/12/26 05:30:25;;;;;;;2.73;1.80;;;;;;;3.39;100.00;95265.69;4938712;29;20297;-86
2021/12/26 05:33:12;;;;;;;2.97;2.13;;;;;;;3.29;100.00;95258.13;4927024;29;20215;-85
2021/12/26 05:35:39;;;;;;;2.07;1.63;;;;;;;3.34;100.00;95268.16;4927809;29;20243;-84
2021/12/26 05:38:08;;;;;;;2.60;1.80;;;;;;;3.33;100.00;95262.00;4929866;29;20249;-86
2021/12/26 05:40:37;;;;;;;2.80;1.87;;;;;;;3.36;100.00;95263.44;4919242;29;20233;-86
2021/12/26 05:43:05;;;;;;;1.97;1.77;;;;;;;3.35;100.00;95267.13;4930108;29;20205;-85
2021/12/26 05:45:32;;;;;;;2.37;1.97;;;;;;;3.39;100.00;95268.34;4930436;29;20198;-86
2021/12/26 05:48:12;;;;;;;2.10;1.60;;;;;;;3.40;100.00;95267.31;4924798;29;20528;-86
2021/12/26 05:50:39;;;;;;;1.73;1.57;;;;;;;3.38;100.00;95264.88;4931263;29;20213;-86
2021/12/26 05:53:13;;;;;;;2.10;1.87;;;;;;;3.43;100.00;95274.88;4925767;29;20213;-86
2021/12/26 05:55:41;;;;;;;2.60;1.90;;;;;;;3.45;100.00;95278.16;4922852;29;20293;-86
2021/12/26 05:58:08;;;;;;;2.30;1.80;;;;;;;3.36;100.00;95276.78;4933182;29;20316;-86
2021/12/26 06:00:35;;;;;;;2.20;2.00;;;;;;;3.40;100.00;95276.13;4932685;29;20218;-86
2021/12/26 06:03:03;;;;;;;1.70;1.60;;;;;;;3.40;100.00;95270.78;4924928;29;20282;-86
2021/12/26 06:05:30;;;;;;;2.47;2.00;;;;;;;3.42;100.00;95273.25;4924916;29;20284;-86
2021/12/26 06:07:58;;;;;;;2.30;1.83;;;;;;;3.40;100.00;95275.34;4924769;29;20214;-85
2021/12/26 06:10:25;;;;;;;4.47;2.10;;;;;;;3.35;100.00;95267.94;4928038;29;20206;-85
2021/12/26 06:12:54;;;;;;;3.80;2.50;;;;;;;3.28;100.00;95267.16;4933768;29;20301;-86
2021/12/26 06:15:21;;;;;;;4.50;2.70;;;;;;;3.25;100.00;95272.09;4920825;29;20205;-87
2021/12/26 06:17:49;;;;;;;6.23;2.83;;;;;;;3.22;100.00;95272.53;4928585;29;20304;-85
2021/12/26 06:20:51;;;;;;;6.53;3.00;;;;;;;3.22;100.00;95278.69;4941156;29;20240;-85
2021/12/26 06:23:37;;;;;;;5.13;3.27;;;;;;;3.20;100.00;95270.06;4942954;29;20220;-85
2021/12/26 06:26:33;;;;;;;4.57;2.90;;;;;;;3.27;100.00;95278.03;4937221;29;20221;-86
2021/12/26 06:29:11;;;;;;;7.53;3.03;;;;;;;3.29;100.00;95274.13;4939711;29;20221;-85
2021/12/26 06:31:41;;;;;;;4.83;3.00;;;;;;;3.33;100.00;95277.19;4942408;29;20210;-86
2021/12/26 06:34:35;;;;;;;4.30;2.90;;;;;;;3.32;100.00;95268.34;4915005;29;20294;-86
2021/12/26 06:37:21;;;;;;;4.87;2.77;;;;;;;3.37;100.00;95278.41;4942424;28;20325;-86
2021/12/26 06:40:10;;;;;;;4.20;3.00;;;;;;;3.42;100.00;95278.59;4921021;29;20241;-87
2021/12/26 06:42:56;;;;;;;5.43;3.20;;;;;;;3.48;100.00;95280.44;4946507;28;20221;-86
2021/12/26 06:45:45;;;;;;;4.57;3.07;;;;;;;3.49;100.00;95284.69;4943921;29;20237;-85
2021/12/26 06:48:39;;;;;;;4.60;2.70;;;;;;;3.54;100.00;95276.09;4945513;29;20269;-86
2021/12/26 06:51:07;;;;;;;3.60;2.70;;;;;;;3.52;100.00;95278.13;4934737;29;20261;-86
2021/12/26 06:53:34;;;;;;;3.90;3.10;;;;;;;3.46;100.00;95274.47;4929444;29;20293;-86
2021/12/26 06:56:02;;;;;;;3.40;2.80;;;;;;;3.43;100.00;95269.56;4930074;29;20209;-86
2021/12/26 06:58:29;;;;;;;4.03;2.90;;;;;;;3.49;100.00;95286.59;4926312;29;20257;-86
2021/12/26 07:00:57;;;;;;;6.13;3.00;;;;;;;3.52;100.00;95289.63;4915677;29;20209;-86
2021/12/26 07:03:25;;;;;;;4.30;2.60;;;;;;;3.51;100.00;95293.31;4922784;29;20199;-86
2021/12/26 07:05:52;;;;;;;4.50;2.77;;;;;;;3.57;100.00;95299.69;4917652;29;20233;-86
2021/12/26 07:08:24;;;;;;;3.23;2.60;;;;;;;3.59;100.00;95306.44;4923937;29;20563;-86
2021/12/26 07:10:56;;;;;;;3.43;2.70;;;;;;;3.59;100.00;95314.44;4925799;29;20288;-86
2021/12/26 07:13:23;;;;;;;5.57;3.63;;;;;;;3.65;100.00;95324.28;4935532;29;20213;-85
2021/12/26 07:15:52;;;;;;;7.37;5.00;;;;;;;3.65;100.00;95328.81;4931451;29;20209;-87
2021/12/26 07:18:22;;;;;;;7.93;3.87;;;;;;;3.63;100.00;95326.34;4940730;28;20206;-86
2021/12/26 07:20:50;;;;;;;7.03;3.67;;;;;;;3.69;100.00;95343.34;4919362;29;20217;-85
2021/12/26 07:23:23;;;;;;;4.53;2.93;;;;;;;3.65;100.00;95342.97;4942582;28;20205;-85
2021/12/26 07:25:54;;;;;;;7.00;3.13;;;;;;;3.71;100.00;95341.28;4927133;29;20217;-87
2021/12/26 07:28:23;;;;;;;5.03;4.33;;;;;;;3.64;100.00;95357.34;4920068;29;20229;-85
2021/12/26 07:31:05;;;;;;;4.10;3.50;;;;;;;3.58;100.00;95346.66;4938475;29;20206;-86
2021/12/26 07:33:35;;;;;;;5.97;3.63;;;;;;;3.57;100.00;95351.22;4914075;29;20241;-86
2021/12/26 07:36:05;;;;;;;8.17;3.20;;;;;;;3.59;100.00;95351.81;4923728;29;20289;-86
2021/12/26 07:38:51;;;;;;;4.73;3.40;;;;;;;3.57;100.00;95358.41;4926084;29;20229;-85
2021/12/26 07:41:18;;;;;;;6.50;3.40;;;;;;;3.58;100.00;95355.50;4940241;28;20216;-84
2021/12/26 07:43:47;;;;;;;5.00;3.60;;;;;;;3.63;100.00;95358.38;4926610;29;20209;-86
2021/12/26 07:46:33;;;;;;;5.43;3.50;;;;;;;3.65;100.00;95361.66;4941122;28;20273;-86
2021/12/26 07:49:05;;;;;;;4.00;3.07;;;;;;;3.67;100.00;95367.56;4943412;28;20206;-85
2021/12/26 07:51:52;;;;;;;6.20;3.10;;;;;;;3.66;100.00;95370.44;4942670;28;20214;-86
2021/12/26 07:54:55;;;;;;;4.73;3.70;;;;;;;3.65;100.00;95376.84;4905345;29;20222;-86
2021/12/26 07:57:44;;;;;;;7.50;4.17;;;;;;;3.59;100.00;95375.81;4935276;29;20224;-85
2021/12/26 08:00:30;;;;;;;8.13;4.20;;;;;;;3.54;100.00;95372.97;4945696;29;20225;-85
2021/12/26 08:02:58;;;;;;;6.50;3.87;;;;;;;3.53;100.00;95376.69;4941670;29;20217;-85
2021/12/26 08:06:02;;;;;;;6.07;3.70;;;;;;;3.53;100.00;95375.84;4908963;29;20385;-86
2021/12/26 08:08:51;;;;;;;6.23;4.13;;;;;;;3.54;100.00;95375.66;4938830;29;20216;-86
2021/12/26 08:11:18;;;;;;;4.37;3.70;;;;;;;3.57;100.00;95371.75;4919589;29;20213;-85
2021/12/26 08:13:46;;;;;;;9.10;3.50;;;;;;;3.60;100.00;95366.78;4926028;28;20203;-86
2021/12/26 08:16:13;;;;;;;5.60;3.70;;;;;;;3.58;100.00;95366.19;4928759;29;20218;-85
2021/12/26 08:18:40;;;;;;;4.13;3.03;;;;;;;3.62;100.00;95358.56;4929900;29;20206;-86
2021/12/26 08:21:08;;;;;;;5.53;3.20;;;;;;;3.65;100.00;95368.84;4935100;29;20262;-86
2021/12/26 08:23:36;;;;;;;5.17;3.10;;;;;;;3.69;100.00;95370.88;4929363;29;20210;-86
2021/12/26 08:26:05;;;;;;;5.80;3.77;;;;;;;3.69;100.00;95365.53;4929808;29;20209;-86
2021/12/26 08:28:32;;;;;;;5.20;3.50;;;;;;;3.73;100.00;95372.09;4927252;28;20261;-87
2021/12/26 08:30:59;;;;;;;5.33;3.10;;;;;;;3.78;100.00;95380.28;4929915;29;20213;-85
2021/12/26 08:33:26;;;;;;;4.10;3.00;;;;;;;3.86;100.00;95371.22;4931250;29;20208;-85
2021/12/26 08:35:54;;;;;;;8.27;3.77;;;;;;;3.93;100.00;95377.34;4931536;29;20242;-85
2021/12/26 08:38:22;;;;;;;4.37;2.50;;;;;;;4.00;100.00;95374.63;4932785;29;20204;-86
2021/12/26 08:40:50;;;;;;;3.63;2.93;;;;;;;4.10;100.00;95383.00;4950408;29;20233;-87
2021/12/26 08:43:18;;;;;;;5.40;3.83;;;;;;;4.13;100.00;95378.06;4933740;29;20263;-86
2021/12/26 08:45:46;;;;;;;5.50;3.50;;;;;;;4.15;100.00;95369.84;4925706;29;20220;-86
2021/12/26 08:48:13;;;;;;;9.53;4.10;;;;;;;4.16;100.00;95372.31;4940010;29;20202;-87
2021/12/26 08:50:41;;;;;;;7.07;3.77;;;;;;;4.23;100.00;95388.28;4932377;29;20194;-86
2021/12/26 08:53:09;;;;;;;4.27;3.00;;;;;;;4.32;100.00;95378.16;4937298;29;20245;-86
2021/12/26 08:55:38;;;;;;;4.83;3.57;;;;;;;4.37;100.00;95373.81;4923651;29;20217;-87
2021/12/26 08:58:06;;;;;;;5.50;3.40;;;;;;;4.37;100.00;95375.66;4925880;29;20210;-86
2021/12/26 09:00:35;;;;;;;3.80;3.00;;;;;;;4.42;100.00;95376.63;4933889;28;20234;-86
2021/12/26 09:03:03;;;;;;;3.77;3.20;;;;;;;4.42;100.00;95381.97;4947968;28;20237;-86
2021/12/26 09:05:30;;;;;;;5.33;3.73;;;;;;;4.48;100.00;95380.31;4931223;29;20213;-86
2021/12/26 09:07:57;;;;;;;5.43;3.77;;;;;;;4.52;100.00;95376.97;4931162;29;20233;-86
2021/12/26 09:10:25;;;;;;;4.67;3.73;;;;;;;4.60;100.00;95383.09;4924597;28;20353;-87
2021/12/26 09:12:53;;;;;;;6.37;3.93;;;;;;;4.59;100.00;95376.97;4941757;28;20294;-86
2021/12/26 09:15:22;;;;;;;7.67;3.90;;;;;;;4.65;100.00;95381.44;4946962;28;20218;-86
2021/12/26 09:17:50;;;;;;;5.43;3.83;;;;;;;4.71;100.00;95374.38;4947276;28;20269;-87
2021/12/26 09:20:17;;;;;;;6.87;4.13;;;;;;;4.75;100.00;95372.94;4934081;29;20229;-85
2021/12/26 09:22:44;;;;;;;8.70;3.87;;;;;;;4.85;100.00;95376.72;4941822;28;20291;-86
2021/12/26 09:25:12;;;;;;;5.90;4.33;;;;;;;4.89;100.00;95374.44;4951547;28;20259;-86
2021/12/26 09:27:39;;;;;;;8.07;4.30;;;;;;;5.03;100.00;95367.13;4945922;28;20307;-86
2021/12/26 09:30:11;;;;;;;6.20;3.80;;;;;;;5.24;100.00;95370.22;4955279;28;20208;-87
2021/12/26 09:32:39;;;;;;;8.70;4.17;;;;;;;5.22;100.00;95372.28;4968328;28;20441;-87
2021/12/26 09:35:07;;;;;;;7.53;4.23;;;;;;;5.28;100.00;95368.72;4954177;28;20236;-84
2021/12/26 09:37:34;;;;;;;7.90;3.90;;;;;;;5.35;100.00;95365.19;4945073;28;20261;-86
2021/12/26 09:40:03;;;;;;;5.93;3.90;;;;;;;5.43;100.00;95364.91;4960691;28;20216;-87
2021/12/26 09:42:30;;;;;;;6.17;3.80;;;;;;;5.52;100.00;95377.78;4959489;28;20236;-87
2021/12/26 09:44:58;;;;;;;5.30;3.83;;;;;;;5.59;100.00;95369.66;4967439;28;20206;-88
2021/12/26 09:47:27;;;;;;;5.60;3.90;;;;;;;5.67;100.00;95366.69;4962969;28;20205;-87
2021/12/26 09:49:54;;;;;;;5.50;3.70;;;;;;;5.75;100.00;95366.38;4946242;28;20271;-87
2021/12/26 09:52:21;;;;;;;5.53;4.00;;;;;;;5.83;100.00;95368.75;4969030;28;20218;-87
2021/12/26 09:54:48;;;;;;;7.03;4.23;;;;;;;5.96;100.00;95360.56;4966132;28;20209;-87
2021/12/26 09:57:15;;;;;;;5.77;3.70;;;;;;;6.11;100.00;95354.84;4942015;28;20303;-86
2021/12/26 09:59:47;;;;;;;4.50;2.90;;;;;;;6.20;100.00;95352.66;4955850;28;20225;-86
2021/12/26 10:02:18;;;;;;;4.23;2.80;;;;;;;6.30;100.00;95353.72;4947150;28;20197;-88
2021/12/26 10:04:49;;;;;;;4.80;3.37;;;;;;;6.39;100.00;95347.00;4967847;28;20233;-86
2021/12/26 10:07:17;;;;;;;4.83;2.87;;;;;;;6.54;100.00;95348.47;4950777;28;20367;-86
2021/12/26 10:09:47;;;;;;;3.93;2.83;;;;;;;6.62;100.00;95348.94;4968229;28;20276;-87
2021/12/26 10:12:15;;;;;;;6.53;2.60;;;;;;;6.71;100.00;95341.38;4949049;28;20206;-87
2021/12/26 10:14:47;;;;;;;3.43;2.60;;;;;;;6.86;100.00;95341.75;4946326;28;20283;-87
2021/12/26 10:17:23;;;;;;;3.03;2.50;;;;;;;7.04;100.00;95333.59;4951240;28;20225;-86
2021/12/26 10:19:54;;;;;;;3.10;2.50;;;;;;;7.25;100.00;95332.19;4943566;28;20220;-86
2021/12/26 10:22:25;;;;;;;4.33;2.77;;;;;;;7.47;100.00;95327.88;4967233;28;20209;-87
2021/12/26 10:24:54;;;;;;;4.10;2.60;;;;;;;7.73;100.00;95323.03;4953759;28;20213;-87
2021/12/26 10:27:26;;;;;;;4.13;2.70;;;;;;;7.86;100.00;95314.69;4964712;28;20300;-87
2021/12/26 10:29:55;;;;;;;4.03;2.83;;;;;;;7.90;100.00;95313.19;4949312;28;20206;-87
2021/12/26 10:32:24;;;;;;;4.07;2.90;;;;;;;8.09;100.00;95313.78;4938479;28;20193;-87
2021/12/26 10:34:55;;;;;;;3.10;2.47;;;;;;;8.38;100.00;95312.78;4948576;28;20319;-87
2021/12/26 10:37:32;;;;;;;3.70;2.50;;;;;;;8.68;100.00;95310.59;4944021;29;20205;-86
2021/12/26 10:40:02;;;;;;;3.70;2.50;;;;;;;8.98;100.00;95310.28;4960329;28;20507;-89
2021/12/26 10:42:31;;;;;;;2.70;2.17;;;;;;;9.13;100.00;95309.69;4948139;28;20275;-89
2021/12/26 10:45:00;;;;;;;4.17;2.50;;;;;;;9.33;100.00;95309.19;4955681;28;20193;-89
2021/12/26 10:47:29;;;;;;;4.23;2.53;;;;;;;9.57;100.00;95316.00;4948054;28;20223;-89
2021/12/26 10:50:00;;;;;;;4.27;2.47;;;;;;;9.66;100.00;95302.91;4951474;28;20201;-88
2021/12/26 10:52:29;;;;;;;2.33;2.13;;;;;;;10.05;100.00;95311.75;4942349;28;20265;-88
2021/12/26 10:55:00;;;;;;;3.43;2.50;;;;;;;10.18;93.18;95308.69;4954472;28;20273;-89
2021/12/26 10:57:34;;;;;;;3.20;2.47;;;;;;;10.09;93.66;95294.81;4953826;28;20234;-88
2021/12/26 11:00:14;;;;;;;2.77;2.43;;;;;;;10.14;95.09;95291.34;4954773;28;20231;-89
2021/12/26 11:02:43;;;;;;;3.90;2.77;;;;;;;10.19;92.42;95280.66;4941983;28;20223;-87
2021/12/26 11:05:14;;;;;;;5.40;2.50;;;;;;;10.30;92.86;95285.06;4955509;28;20212;-87
2021/12/26 11:07:48;;;;;;;3.97;2.57;;;;;;;10.40;93.79;95287.06;4961545;28;20311;-85
2021/12/26 11:10:18;;;;;;;3.57;2.57;;;;;;;10.65;92.08;95283.78;4964113;28;20200;-85
2021/12/26 11:12:49;;;;;;;4.57;2.60;;;;;;;10.75;88.86;95282.00;4944378;28;20213;-86
2021/12/26 11:15:18;;;;;;;3.87;2.80;;;;;;;10.61;89.47;95276.22;4944592;28;20217;-86
2021/12/26 11:17:49;;;;;;;5.17;2.50;;;;;;;10.72;89.78;95273.63;4947840;28;20225;-85
2021/12/26 11:20:25;;;;;;;2.93;2.30;;;;;;;10.90;89.59;95282.13;4946317;28;20228;-85
2021/12/26 11:22:57;;;;;;;3.73;2.37;;;;;;;10.99;87.42;95274.34;4968754;28;20200;-86
2021/12/26 11:25:25;;;;;;;3.87;2.80;;;;;;;10.98;85.72;95272.72;4950042;28;20529;-85
2021/12/26 11:27:54;;;;;;;2.80;2.10;;;;;;;10.89;82.82;95285.06;4944913;28;20256;-86
2021/12/26 11:30:22;;;;;;;2.10;1.53;;;;;;;10.67;82.11;95281.66;4941625;28;20204;-85
2021/12/26 11:32:49;;;;;;;2.00;1.60;;;;;;;10.54;80.80;95270.22;4952542;28;20217;-85
2021/12/26 11:35:17;;;;;;;1.93;1.70;;;;;;;10.15;78.70;95274.09;4961290;28;20320;-86
2021/12/26 11:37:45;;;;;;;4.03;2.47;;;;;;;9.88;81.09;95268.66;4939576;28;20216;-88
2021/12/26 11:40:33;;;;;;;2.57;1.90;;;;;;;9.66;81.67;95260.59;4963775;28;20243;-86
2021/12/26 11:43:50;;;;;;;2.90;2.07;;;;;;;9.66;82.66;95262.47;4964261;28;20215;-86
2021/12/26 11:47:05;;;;;;;2.40;2.10;;;;;;;9.62;82.95;95262.16;4946177;28;20220;-87
2021/12/26 11:50:13;;;;;;;3.80;2.07;;;;;;;9.53;82.48;95260.19;4957603;28;20247;-86
2021/12/26 11:53:23;;;;;;;3.20;2.50;;;;;;;9.33;85.34;95258.84;4925634;28;20264;-87
2021/12/26 11:56:31;;;;;;;3.50;2.50;;;;;;;8.92;87.57;95257.44;4940872;28;20228;-86